Neptune Avra — 9HKH6 — position and weather

sailwx.info

Track history (hours):
 
Tides and Currents Weather Stations Pressure Air Temp Water Temp Dewpoint Dewpoint Depression Visibility Wind Speed Wind Dir Waves Ship Positions

Neptune Avra

Last reported at 2017-Apr-30 02:05 UTC. Time now 2017-Apr-30 07:01 UTC.
Position N 38°51' E 025°12'.

Length 155 m; draft 6.2 m.

Type: Cargo ship. MMSI: 248598000.

Date/timePositionNaut miles runAvg speedWind from/ knotsBaromVisibWave heightAir tempDewpointWater temp
2017-Apr-30 02:05N 38°51' E 025°12'618.2
2017-Apr-30 01:45N 38°45' E 025°09'917.8
2017-Apr-30 01:16N 38°38' E 025°03'2017.6
2017-Apr-30 00:09N 38°20' E 024°52'317.8
2017-Apr-29 23:59N 38°18' E 024°50'917.8
2017-Apr-29 23:29N 38°09' E 024°46'1518.2
2017-Apr-29 22:38N 37°56' E 024°37'217.4
2017-Apr-29 22:30N 37°54' E 024°35'917.5
2017-Apr-29 22:00N 37°49' E 024°26'917.6
2017-Apr-29 21:30N 37°43' E 024°18'1017.6
2017-Apr-29 20:56N 37°37' E 024°07'717.1
2017-Apr-29 20:30N 37°37' E 023°58'816.6
2017-Apr-29 20:00N 37°39' E 023°48'815.2
2017-Apr-29 19:30N 37°43' E 023°40'816.1
2017-Apr-29 19:00N 37°51' E 023°37'612.0
2017-Apr-29 18:31N 37°57' E 023°36'1 1.7
2017-Apr-29 17:59N 37°58' E 023°37'0 0.0
2017-Apr-29 17:29N 37°58' E 023°37'0 0.0
2017-Apr-29 16:59N 37°58' E 023°37'0 0.0
2017-Apr-29 16:29N 37°58' E 023°37'0 0.0
2017-Apr-29 15:59N 37°58' E 023°37'0 0.0
2017-Apr-29 15:29N 37°58' E 023°37'0 0.0
2017-Apr-29 14:59N 37°58' E 023°37'0 0.0
2017-Apr-29 14:29N 37°58' E 023°37'0 0.0
2017-Apr-29 13:29N 37°58' E 023°37'0 0.0
2017-Apr-29 12:59N 37°58' E 023°37'0 0.0
2017-Apr-29 12:26N 37°58' E 023°37'0 0.0
2017-Apr-29 11:58N 37°58' E 023°37'0 0.0
2017-Apr-29 11:28N 37°58' E 023°37'0 0.0
2017-Apr-29 10:58N 37°58' E 023°37'0 0.8
2017-Apr-29 10:30N 37°57' E 023°36'2 3.8
2017-Apr-29 10:00N 37°56' E 023°36'1 1.5
2017-Apr-29 09:30N 37°55' E 023°37'4 8.8
2017-Apr-29 09:00N 37°51' E 023°39'917.7
2017-Apr-29 08:30N 37°43' E 023°44'816.9
2017-Apr-29 08:00N 37°35' E 023°43'917.8
2017-Apr-29 07:30N 37°26' E 023°39'917.6
2017-Apr-29 07:00N 37°18' E 023°35'917.7
2017-Apr-29 06:30N 37°10' E 023°31'917.8
2017-Apr-29 06:00N 37°01' E 023°27'917.6
2017-Apr-29 05:30N 36°53' E 023°23'713.5
2017-Apr-29 04:58N 36°46' E 023°21'611.7
2017-Apr-29 04:29N 36°41' E 023°20'1017.8
2017-Apr-29 03:57N 36°31' E 023°16'32617.5
2017-Apr-28 09:23N 36°31' E 016°31'717.6
2017-Apr-28 09:00N 36°31' E 016°23'917.4
2017-Apr-28 08:30N 36°31' E 016°12'917.1
2017-Apr-28 08:00N 36°32' E 016°01'816.9
2017-Apr-28 07:30N 36°32' E 015°51'816.9
2017-Apr-28 07:00N 36°32' E 015°40'917.0
2017-Apr-28 06:30N 36°33' E 015°30'916.9
2017-Apr-28 06:00N 36°33' E 015°19'816.8
2017-Apr-28 05:30N 36°33' E 015°09'916.8
2017-Apr-28 05:00N 36°34' E 014°58'817.0
2017-Apr-28 04:30N 36°36' E 014°48'917.0
2017-Apr-28 04:00N 36°38' E 014°38'817.0
2017-Apr-28 03:30N 36°40' E 014°27'916.9
2017-Apr-28 03:00N 36°44' E 014°18'817.1
2017-Apr-28 02:30N 36°47' E 014°08'917.4
2017-Apr-28 02:00N 36°50' E 013°58'917.6
2017-Apr-28 01:30N 36°54' E 013°48'917.6
2017-Apr-28 01:00N 36°57' E 013°38'917.4
2017-Apr-28 00:30N 37°01' E 013°28'917.1
2017-Apr-28 00:00N 37°04' E 013°17'816.9
2017-Apr-27 23:30N 37°07' E 013°08'917.3
2017-Apr-27 23:00N 37°11' E 012°58'917.2
2017-Apr-27 22:30N 37°14' E 012°48'917.4
2017-Apr-27 22:00N 37°18' E 012°38'917.2
2017-Apr-27 21:30N 37°22' E 012°29'817.0
2017-Apr-27 21:00N 37°26' E 012°20'816.6
2017-Apr-27 20:30N 37°30' E 012°10'816.2
2017-Apr-27 20:00N 37°35' E 012°02'816.6
2017-Apr-27 19:30N 37°38' E 011°52'916.8
2017-Apr-27 18:57N 37°42' E 011°42'816.8
2017-Apr-27 18:29N 37°46' E 011°33'817.1
2017-Apr-27 18:00N 37°50' E 011°24'816.8
2017-Apr-27 17:30N 37°54' E 011°14'816.7
2017-Apr-27 17:00N 37°58' E 011°05'816.8
2017-Apr-27 16:30N 38°01' E 010°55'816.8
2017-Apr-27 16:00N 38°03' E 010°45'816.3
2017-Apr-27 15:29N 38°06' E 010°35'816.3
2017-Apr-27 15:00N 38°09' E 010°25'816.5
2017-Apr-27 14:30N 38°11' E 010°15'7917.1
2017-Apr-27 09:54N 38°36' E 008°40'27316.4
2017-Apr-26 17:19N 40°45' E 003°28'516.5
2017-Apr-26 17:00N 40°47' E 003°22'816.3
2017-Apr-26 16:30N 40°51' E 003°13'816.2
2017-Apr-26 16:00N 40°55' E 003°03'815.9
2017-Apr-26 15:30N 40°59' E 002°54'815.8
2017-Apr-26 14:59N 41°03' E 002°44'815.3
2017-Apr-26 14:28N 41°07' E 002°35'94 4.2
2017-Apr-25 15:55N 42°18' E 003°57'2116.7
2017-Apr-25 14:41N 42°32' E 004°17'1316.9
2017-Apr-25 13:55N 42°42' E 004°29'2117.1
2017-Apr-25 12:41N 42°57' E 004°49'1317.2
2017-Apr-25 11:56N 43°06' E 005°01'817.4
2017-Apr-25 11:29N 43°12' E 005°09'12 0.9
2017-Apr-24 21:58N 43°20' E 005°21'2 3.7
2017-Apr-24 21:30N 43°21' E 005°19'510.4
2017-Apr-24 21:00N 43°18' E 005°13'814.8
2017-Apr-24 20:28N 43°11' E 005°09'817.2
2017-Apr-24 19:59N 43°04' E 005°02'817.2
2017-Apr-24 19:30N 42°58' E 004°55'2717.4
2017-Apr-24 17:59N 42°37' E 004°33'817.4
2017-Apr-24 17:30N 42°30' E 004°26'2617.3
2017-Apr-24 15:59N 42°10' E 004°04'2217.4
2017-Apr-24 14:44N 41°53' E 003°45'716.9
2017-Apr-24 14:19N 41°47' E 003°40'1416.8
2017-Apr-24 13:30N 41°36' E 003°28'816.7
2017-Apr-24 13:00N 41°30' E 003°21'1517.0
2017-Apr-24 12:07N 41°18' E 003°09'417.1
2017-Apr-24 11:55N 41°15' E 003°06'716.8
2017-Apr-24 11:30N 41°10' E 003°00'816.8
2017-Apr-24 11:00N 41°03' E 002°54'817.1
2017-Apr-24 10:30N 40°57' E 002°47'917.1
2017-Apr-24 10:00N 40°50' E 002°40'817.0
2017-Apr-24 09:30N 40°43' E 002°33'917.0
2017-Apr-24 09:00N 40°37' E 002°26'816.9
2017-Apr-24 08:30N 40°30' E 002°18'816.8
2017-Apr-24 08:00N 40°23' E 002°12'816.9
2017-Apr-24 07:30N 40°17' E 002°05'916.9
2017-Apr-24 07:00N 40°10' E 001°58'917.2
2017-Apr-24 06:30N 40°03' E 001°51'917.1
2017-Apr-24 06:00N 39°57' E 001°44'917.2
2017-Apr-24 05:30N 39°50' E 001°37'917.1
2017-Apr-24 04:58N 39°43' E 001°30'1317.2
2017-Apr-24 04:12N 39°32' E 001°19'7817.1
2017-Apr-23 23:39N 38°31' E 000°18'2817.4
2017-Apr-23 22:02N 38°07' W 000°02'417.6
2017-Apr-23 21:50N 38°05' W 000°04'3117.3
2017-Apr-23 20:01N 37°39' W 000°27'017.1
2017-Apr-23 20:00N 37°38' W 000°27'1016.9
2017-Apr-23 19:26N 37°31' W 000°34'916.7
2017-Apr-23 18:54N 37°25' W 000°43'616.5
2017-Apr-23 18:30N 37°20' W 000°49'816.2
2017-Apr-23 17:59N 37°15' W 000°57'21215.7
2017-Apr-23 04:28N 36°01' W 005°05'716.0
2017-Apr-23 04:01N 36°00' W 005°14'816.6
2017-Apr-23 03:30N 35°58' W 005°24'1018.8
2017-Apr-23 03:00N 35°56' W 005°36'24213.7
2017-Apr-22 09:24N 38°01' W 009°55'717.1
2017-Apr-22 09:00N 38°07' W 009°57'917.2
2017-Apr-22 08:30N 38°16' W 009°59'917.0
2017-Apr-22 08:00N 38°24' W 010°02'917.1
2017-Apr-22 07:30N 38°32' W 010°04'917.2
2017-Apr-22 07:00N 38°41' W 010°07'816.9
2017-Apr-22 06:30N 38°49' W 010°07'816.6
2017-Apr-22 06:00N 38°57' W 010°07'816.6
2017-Apr-22 05:30N 39°06' W 010°07'816.5
2017-Apr-22 05:00N 39°14' W 010°07'816.7
2017-Apr-22 04:30N 39°22' W 010°07'816.6
2017-Apr-22 03:59N 39°31' W 010°07'4016.6
2017-Apr-22 01:35N 40°11' W 010°08'116.2
2017-Apr-22 01:30N 40°12' W 010°08'816.4
2017-Apr-22 01:00N 40°20' W 010°07'816.7
2017-Apr-22 00:30N 40°29' W 010°07'4716.8
2017-Apr-21 21:41N 41°16' W 010°07'416.8
2017-Apr-21 21:27N 41°20' W 010°07'816.7
2017-Apr-21 21:00N 41°27' W 010°07'22112.8
2017-Apr-21 03:41N 43°49' W 006°16'316.3
2017-Apr-21 03:29N 43°49' W 006°12'816.4
2017-Apr-21 02:59N 43°47' W 006°01'916.5
2017-Apr-21 02:27N 43°46' W 005°49'716.8
2017-Apr-21 02:00N 43°45' W 005°38'816.6
2017-Apr-21 01:30N 43°44' W 005°27'916.7
2017-Apr-21 01:00N 43°43' W 005°15'817.1
2017-Apr-21 00:30N 43°41' W 005°04'  
Track history (hours):
 
Tides and Currents Weather Stations Pressure Air Temp Water Temp Dewpoint Dewpoint Depression Visibility Wind Speed Wind Dir Waves Ship Positions

Neptune Avra

Last reported at 2017-Apr-30 02:05 UTC. Time now 2017-Apr-30 07:01 UTC.
Position N 38°51' E 025°12'.

Length 155 m; draft 6.2 m.

Type: Cargo ship. MMSI: 248598000.

Date/timePositionNaut miles runAvg speedWind from/ knotsBaromVisibWave heightAir tempDewpointWater temp
2017-Apr-30 02:05N 38°51' E 025°12'618.2
2017-Apr-30 01:45N 38°45' E 025°09'917.8
2017-Apr-30 01:16N 38°38' E 025°03'2017.6
2017-Apr-30 00:09N 38°20' E 024°52'317.8
2017-Apr-29 23:59N 38°18' E 024°50'917.8
2017-Apr-29 23:29N 38°09' E 024°46'1518.2
2017-Apr-29 22:38N 37°56' E 024°37'217.4
2017-Apr-29 22:30N 37°54' E 024°35'917.5
2017-Apr-29 22:00N 37°49' E 024°26'917.6
2017-Apr-29 21:30N 37°43' E 024°18'1017.6
2017-Apr-29 20:56N 37°37' E 024°07'717.1
2017-Apr-29 20:30N 37°37' E 023°58'816.6
2017-Apr-29 20:00N 37°39' E 023°48'815.2
2017-Apr-29 19:30N 37°43' E 023°40'816.1
2017-Apr-29 19:00N 37°51' E 023°37'612.0
2017-Apr-29 18:31N 37°57' E 023°36'1 1.7
2017-Apr-29 17:59N 37°58' E 023°37'0 0.0
2017-Apr-29 17:29N 37°58' E 023°37'0 0.0
2017-Apr-29 16:59N 37°58' E 023°37'0 0.0
2017-Apr-29 16:29N 37°58' E 023°37'0 0.0
2017-Apr-29 15:59N 37°58' E 023°37'0 0.0
2017-Apr-29 15:29N 37°58' E 023°37'0 0.0
2017-Apr-29 14:59N 37°58' E 023°37'0 0.0
2017-Apr-29 14:29N 37°58' E 023°37'0 0.0
2017-Apr-29 13:29N 37°58' E 023°37'0 0.0
2017-Apr-29 12:59N 37°58' E 023°37'0 0.0
2017-Apr-29 12:26N 37°58' E 023°37'0 0.0
2017-Apr-29 11:58N 37°58' E 023°37'0 0.0
2017-Apr-29 11:28N 37°58' E 023°37'0 0.0
2017-Apr-29 10:58N 37°58' E 023°37'0 0.8
2017-Apr-29 10:30N 37°57' E 023°36'2 3.8
2017-Apr-29 10:00N 37°56' E 023°36'1 1.5
2017-Apr-29 09:30N 37°55' E 023°37'4 8.8
2017-Apr-29 09:00N 37°51' E 023°39'917.7
2017-Apr-29 08:30N 37°43' E 023°44'816.9
2017-Apr-29 08:00N 37°35' E 023°43'917.8
2017-Apr-29 07:30N 37°26' E 023°39'917.6
2017-Apr-29 07:00N 37°18' E 023°35'917.7
2017-Apr-29 06:30N 37°10' E 023°31'917.8
2017-Apr-29 06:00N 37°01' E 023°27'917.6
2017-Apr-29 05:30N 36°53' E 023°23'713.5
2017-Apr-29 04:58N 36°46' E 023°21'611.7
2017-Apr-29 04:29N 36°41' E 023°20'1017.8
2017-Apr-29 03:57N 36°31' E 023°16'32617.5
2017-Apr-28 09:23N 36°31' E 016°31'717.6
2017-Apr-28 09:00N 36°31' E 016°23'917.4
2017-Apr-28 08:30N 36°31' E 016°12'917.1
2017-Apr-28 08:00N 36°32' E 016°01'816.9
2017-Apr-28 07:30N 36°32' E 015°51'816.9
2017-Apr-28 07:00N 36°32' E 015°40'917.0
2017-Apr-28 06:30N 36°33' E 015°30'916.9
2017-Apr-28 06:00N 36°33' E 015°19'816.8
2017-Apr-28 05:30N 36°33' E 015°09'916.8
2017-Apr-28 05:00N 36°34' E 014°58'817.0
2017-Apr-28 04:30N 36°36' E 014°48'917.0
2017-Apr-28 04:00N 36°38' E 014°38'817.0
2017-Apr-28 03:30N 36°40' E 014°27'916.9
2017-Apr-28 03:00N 36°44' E 014°18'817.1
2017-Apr-28 02:30N 36°47' E 014°08'917.4
2017-Apr-28 02:00N 36°50' E 013°58'917.6
2017-Apr-28 01:30N 36°54' E 013°48'917.6
2017-Apr-28 01:00N 36°57' E 013°38'917.4
2017-Apr-28 00:30N 37°01' E 013°28'917.1
2017-Apr-28 00:00N 37°04' E 013°17'816.9
2017-Apr-27 23:30N 37°07' E 013°08'917.3
2017-Apr-27 23:00N 37°11' E 012°58'917.2
2017-Apr-27 22:30N 37°14' E 012°48'917.4
2017-Apr-27 22:00N 37°18' E 012°38'917.2
2017-Apr-27 21:30N 37°22' E 012°29'817.0
2017-Apr-27 21:00N 37°26' E 012°20'816.6
2017-Apr-27 20:30N 37°30' E 012°10'816.2
2017-Apr-27 20:00N 37°35' E 012°02'816.6
2017-Apr-27 19:30N 37°38' E 011°52'916.8
2017-Apr-27 18:57N 37°42' E 011°42'816.8
2017-Apr-27 18:29N 37°46' E 011°33'817.1
2017-Apr-27 18:00N 37°50' E 011°24'816.8
2017-Apr-27 17:30N 37°54' E 011°14'816.7
2017-Apr-27 17:00N 37°58' E 011°05'816.8
2017-Apr-27 16:30N 38°01' E 010°55'816.8
2017-Apr-27 16:00N 38°03' E 010°45'816.3
2017-Apr-27 15:29N 38°06' E 010°35'816.3
2017-Apr-27 15:00N 38°09' E 010°25'816.5
2017-Apr-27 14:30N 38°11' E 010°15'7917.1
2017-Apr-27 09:54N 38°36' E 008°40'27316.4
2017-Apr-26 17:19N 40°45' E 003°28'516.5
2017-Apr-26 17:00N 40°47' E 003°22'816.3
2017-Apr-26 16:30N 40°51' E 003°13'816.2
2017-Apr-26 16:00N 40°55' E 003°03'815.9
2017-Apr-26 15:30N 40°59' E 002°54'815.8
2017-Apr-26 14:59N 41°03' E 002°44'815.3
2017-Apr-26 14:28N 41°07' E 002°35'94 4.2
2017-Apr-25 15:55N 42°18' E 003°57'2116.7
2017-Apr-25 14:41N 42°32' E 004°17'1316.9
2017-Apr-25 13:55N 42°42' E 004°29'2117.1
2017-Apr-25 12:41N 42°57' E 004°49'1317.2
2017-Apr-25 11:56N 43°06' E 005°01'817.4
2017-Apr-25 11:29N 43°12' E 005°09'12 0.9
2017-Apr-24 21:58N 43°20' E 005°21'2 3.7
2017-Apr-24 21:30N 43°21' E 005°19'510.4
2017-Apr-24 21:00N 43°18' E 005°13'814.8
2017-Apr-24 20:28N 43°11' E 005°09'817.2
2017-Apr-24 19:59N 43°04' E 005°02'817.2
2017-Apr-24 19:30N 42°58' E 004°55'2717.4
2017-Apr-24 17:59N 42°37' E 004°33'817.4
2017-Apr-24 17:30N 42°30' E 004°26'2617.3
2017-Apr-24 15:59N 42°10' E 004°04'2217.4
2017-Apr-24 14:44N 41°53' E 003°45'716.9
2017-Apr-24 14:19N 41°47' E 003°40'1416.8
2017-Apr-24 13:30N 41°36' E 003°28'816.7
2017-Apr-24 13:00N 41°30' E 003°21'1517.0
2017-Apr-24 12:07N 41°18' E 003°09'417.1
2017-Apr-24 11:55N 41°15' E 003°06'716.8
2017-Apr-24 11:30N 41°10' E 003°00'816.8
2017-Apr-24 11:00N 41°03' E 002°54'817.1
2017-Apr-24 10:30N 40°57' E 002°47'917.1
2017-Apr-24 10:00N 40°50' E 002°40'817.0
2017-Apr-24 09:30N 40°43' E 002°33'917.0
2017-Apr-24 09:00N 40°37' E 002°26'816.9
2017-Apr-24 08:30N 40°30' E 002°18'816.8
2017-Apr-24 08:00N 40°23' E 002°12'816.9
2017-Apr-24 07:30N 40°17' E 002°05'916.9
2017-Apr-24 07:00N 40°10' E 001°58'917.2
2017-Apr-24 06:30N 40°03' E 001°51'917.1
2017-Apr-24 06:00N 39°57' E 001°44'917.2
2017-Apr-24 05:30N 39°50' E 001°37'917.1
2017-Apr-24 04:58N 39°43' E 001°30'1317.2
2017-Apr-24 04:12N 39°32' E 001°19'7817.1
2017-Apr-23 23:39N 38°31' E 000°18'2817.4
2017-Apr-23 22:02N 38°07' W 000°02'417.6
2017-Apr-23 21:50N 38°05' W 000°04'3117.3
2017-Apr-23 20:01N 37°39' W 000°27'017.1
2017-Apr-23 20:00N 37°38' W 000°27'1016.9
2017-Apr-23 19:26N 37°31' W 000°34'916.7
2017-Apr-23 18:54N 37°25' W 000°43'616.5
2017-Apr-23 18:30N 37°20' W 000°49'816.2
2017-Apr-23 17:59N 37°15' W 000°57'21215.7
2017-Apr-23 04:28N 36°01' W 005°05'716.0
2017-Apr-23 04:01N 36°00' W 005°14'816.6
2017-Apr-23 03:30N 35°58' W 005°24'1018.8
2017-Apr-23 03:00N 35°56' W 005°36'24213.7
2017-Apr-22 09:24N 38°01' W 009°55'717.1
2017-Apr-22 09:00N 38°07' W 009°57'917.2
2017-Apr-22 08:30N 38°16' W 009°59'917.0
2017-Apr-22 08:00N 38°24' W 010°02'917.1
2017-Apr-22 07:30N 38°32' W 010°04'917.2
2017-Apr-22 07:00N 38°41' W 010°07'816.9
2017-Apr-22 06:30N 38°49' W 010°07'816.6
2017-Apr-22 06:00N 38°57' W 010°07'816.6
2017-Apr-22 05:30N 39°06' W 010°07'816.5
2017-Apr-22 05:00N 39°14' W 010°07'816.7
2017-Apr-22 04:30N 39°22' W 010°07'816.6
2017-Apr-22 03:59N 39°31' W 010°07'4016.6
2017-Apr-22 01:35N 40°11' W 010°08'116.2
2017-Apr-22 01:30N 40°12' W 010°08'816.4
2017-Apr-22 01:00N 40°20' W 010°07'816.7
2017-Apr-22 00:30N 40°29' W 010°07'4716.8
2017-Apr-21 21:41N 41°16' W 010°07'416.8
2017-Apr-21 21:27N 41°20' W 010°07'816.7
2017-Apr-21 21:00N 41°27' W 010°07'22112.8
2017-Apr-21 03:41N 43°49' W 006°16'316.3
2017-Apr-21 03:29N 43°49' W 006°12'816.4
2017-Apr-21 02:59N 43°47' W 006°01'916.5
2017-Apr-21 02:27N 43°46' W 005°49'716.8
2017-Apr-21 02:00N 43°45' W 005°38'816.6
2017-Apr-21 01:30N 43°44' W 005°27'916.7
2017-Apr-21 01:00N 43°43' W 005°15'817.1
2017-Apr-21 00:30N 43°41' W 005°04'  

Dump ship's entire track history